sensor_id;sensor_type;location;lat;lon;timestamp;P1;durP1;ratioP1;P2;durP2;ratioP2
51981;SDS011;37998;53.416;6.730;2022-08-30T00:00:51;5.10;;;1.45;;
51981;SDS011;37998;53.416;6.730;2022-08-30T00:03:27;6.72;;;1.45;;
51981;SDS011;37998;53.416;6.730;2022-08-30T00:05:54;5.70;;;1.52;;
51981;SDS011;37998;53.416;6.730;2022-08-30T00:08:21;3.45;;;1.50;;
51981;SDS011;37998;53.416;6.730;2022-08-30T00:10:46;2.67;;;1.48;;
51981;SDS011;37998;53.416;6.730;2022-08-30T00:13:15;6.03;;;1.60;;
51981;SDS011;37998;53.416;6.730;2022-08-30T00:15:42;1.58;;;1.02;;
51981;SDS011;37998;53.416;6.730;2022-08-30T00:18:08;3.40;;;1.25;;
51981;SDS011;37998;53.416;6.730;2022-08-30T00:20:35;4.70;;;1.45;;
51981;SDS011;37998;53.416;6.730;2022-08-30T00:23:01;2.42;;;1.38;;
51981;SDS011;37998;53.416;6.730;2022-08-30T00:25:28;4.72;;;2.22;;
51981;SDS011;37998;53.416;6.730;2022-08-30T00:27:54;2.17;;;1.40;;
51981;SDS011;37998;53.416;6.730;2022-08-30T00:30:20;4.50;;;1.75;;
51981;SDS011;37998;53.416;6.730;2022-08-30T00:32:46;1.90;;;1.10;;
51981;SDS011;37998;53.416;6.730;2022-08-30T00:35:13;3.67;;;1.30;;
51981;SDS011;37998;53.416;6.730;2022-08-30T00:37:40;2.40;;;1.20;;
51981;SDS011;37998;53.416;6.730;2022-08-30T00:40:07;3.63;;;1.70;;
51981;SDS011;37998;53.416;6.730;2022-08-30T00:42:36;2.55;;;1.25;;
51981;SDS011;37998;53.416;6.730;2022-08-30T00:45:10;2.63;;;1.40;;
51981;SDS011;37998;53.416;6.730;2022-08-30T00:47:36;5.85;;;1.58;;
51981;SDS011;37998;53.416;6.730;2022-08-30T00:50:03;5.15;;;1.40;;
51981;SDS011;37998;53.416;6.730;2022-08-30T00:52:32;2.25;;;1.20;;
51981;SDS011;37998;53.416;6.730;2022-08-30T00:55:00;5.45;;;1.50;;
51981;SDS011;37998;53.416;6.730;2022-08-30T00:57:28;6.13;;;1.80;;
51981;SDS011;37998;53.416;6.730;2022-08-30T00:59:55;1.65;;;1.30;;
51981;SDS011;37998;53.416;6.730;2022-08-30T01:02:21;3.28;;;1.48;;
51981;SDS011;37998;53.416;6.730;2022-08-30T01:04:48;3.80;;;1.90;;
51981;SDS011;37998;53.416;6.730;2022-08-30T01:07:19;3.55;;;1.70;;
51981;SDS011;37998;53.416;6.730;2022-08-30T01:09:45;2.22;;;1.58;;
51981;SDS011;37998;53.416;6.730;2022-08-30T01:12:11;4.53;;;3.15;;
51981;SDS011;37998;53.416;6.730;2022-08-30T01:14:37;5.32;;;1.90;;
51981;SDS011;37998;53.416;6.730;2022-08-30T01:17:02;2.92;;;1.90;;
51981;SDS011;37998;53.416;6.730;2022-08-30T01:19:49;7.93;;;1.95;;
51981;SDS011;37998;53.416;6.730;2022-08-30T01:25:07;4.75;;;2.10;;
51981;SDS011;37998;53.416;6.730;2022-08-30T01:27:38;5.78;;;2.15;;
51981;SDS011;37998;53.416;6.730;2022-08-30T01:30:09;5.10;;;1.98;;
51981;SDS011;37998;53.416;6.730;2022-08-30T01:32:40;4.38;;;2.08;;
51981;SDS011;37998;53.416;6.730;2022-08-30T01:35:08;3.72;;;2.00;;
51981;SDS011;37998;53.416;6.730;2022-08-30T01:37:36;3.55;;;2.20;;
51981;SDS011;37998;53.416;6.730;2022-08-30T01:40:02;4.47;;;2.25;;
51981;SDS011;37998;53.416;6.730;2022-08-30T01:42:29;3.72;;;2.15;;
51981;SDS011;37998;53.416;6.730;2022-08-30T01:44:54;3.00;;;2.00;;
51981;SDS011;37998;53.416;6.730;2022-08-30T01:47:20;3.97;;;2.33;;
51981;SDS011;37998;53.416;6.730;2022-08-30T01:49:47;4.18;;;2.30;;
51981;SDS011;37998;53.416;6.730;2022-08-30T01:52:13;4.40;;;2.42;;
51981;SDS011;37998;53.416;6.730;2022-08-30T01:54:41;3.28;;;2.28;;
51981;SDS011;37998;53.416;6.730;2022-08-30T01:57:09;4.25;;;2.40;;
51981;SDS011;37998;53.416;6.730;2022-08-30T01:59:36;4.10;;;2.35;;
51981;SDS011;37998;53.416;6.730;2022-08-30T02:02:04;3.85;;;2.35;;
51981;SDS011;37998;53.416;6.730;2022-08-30T02:04:30;5.32;;;2.30;;
51981;SDS011;37998;53.416;6.730;2022-08-30T02:06:56;3.72;;;2.10;;
51981;SDS011;37998;53.416;6.730;2022-08-30T02:09:22;5.07;;;2.60;;
51981;SDS011;37998;53.416;6.730;2022-08-30T02:11:48;5.35;;;2.40;;
51981;SDS011;37998;53.416;6.730;2022-08-30T02:14:14;3.42;;;2.00;;
51981;SDS011;37998;53.416;6.730;2022-08-30T02:16:40;2.83;;;2.00;;
51981;SDS011;37998;53.416;6.730;2022-08-30T02:19:06;4.05;;;2.30;;
51981;SDS011;37998;53.416;6.730;2022-08-30T02:21:32;2.95;;;2.08;;
51981;SDS011;37998;53.416;6.730;2022-08-30T02:23:58;2.67;;;2.00;;
51981;SDS011;37998;53.416;6.730;2022-08-30T02:26:24;3.58;;;2.13;;
51981;SDS011;37998;53.416;6.730;2022-08-30T02:28:51;8.27;;;2.53;;
51981;SDS011;37998;53.416;6.730;2022-08-30T02:31:18;2.97;;;1.70;;
51981;SDS011;37998;53.416;6.730;2022-08-30T02:33:45;3.28;;;1.75;;
51981;SDS011;37998;53.416;6.730;2022-08-30T02:36:11;3.30;;;1.92;;
51981;SDS011;37998;53.416;6.730;2022-08-30T02:38:37;3.47;;;1.77;;
51981;SDS011;37998;53.416;6.730;2022-08-30T02:41:03;3.70;;;1.67;;
51981;SDS011;37998;53.416;6.730;2022-08-30T02:43:29;2.13;;;1.67;;
51981;SDS011;37998;53.416;6.730;2022-08-30T02:45:54;7.15;;;1.52;;
51981;SDS011;37998;53.416;6.730;2022-08-30T02:48:20;2.05;;;1.38;;
51981;SDS011;37998;53.416;6.730;2022-08-30T02:50:47;3.92;;;1.50;;
51981;SDS011;37998;53.416;6.730;2022-08-30T02:53:14;2.90;;;1.20;;
51981;SDS011;37998;53.416;6.730;2022-08-30T02:55:40;2.92;;;1.65;;
51981;SDS011;37998;53.416;6.730;2022-08-30T02:58:06;3.33;;;1.90;;
51981;SDS011;37998;53.416;6.730;2022-08-30T03:00:32;4.75;;;1.52;;
51981;SDS011;37998;53.416;6.730;2022-08-30T03:02:58;1.40;;;1.30;;
51981;SDS011;37998;53.416;6.730;2022-08-30T03:05:24;5.20;;;1.80;;
51981;SDS011;37998;53.416;6.730;2022-08-30T03:07:50;2.78;;;1.58;;
51981;SDS011;37998;53.416;6.730;2022-08-30T03:10:16;3.33;;;1.70;;
51981;SDS011;37998;53.416;6.730;2022-08-30T03:12:42;4.55;;;1.60;;
51981;SDS011;37998;53.416;6.730;2022-08-30T03:15:11;3.95;;;2.28;;
51981;SDS011;37998;53.416;6.730;2022-08-30T03:17:37;2.55;;;1.48;;
51981;SDS011;37998;53.416;6.730;2022-08-30T03:20:04;2.22;;;1.42;;
51981;SDS011;37998;53.416;6.730;2022-08-30T03:22:31;2.58;;;1.40;;
51981;SDS011;37998;53.416;6.730;2022-08-30T03:24:56;4.55;;;1.88;;
51981;SDS011;37998;53.416;6.730;2022-08-30T03:27:23;2.47;;;1.58;;
51981;SDS011;37998;53.416;6.730;2022-08-30T03:29:50;4.03;;;1.80;;
51981;SDS011;37998;53.416;6.730;2022-08-30T03:32:16;4.20;;;1.55;;
51981;SDS011;37998;53.416;6.730;2022-08-30T03:34:42;4.30;;;1.58;;
51981;SDS011;37998;53.416;6.730;2022-08-30T03:37:08;2.88;;;1.73;;
51981;SDS011;37998;53.416;6.730;2022-08-30T03:39:34;5.40;;;1.60;;
51981;SDS011;37998;53.416;6.730;2022-08-30T03:42:00;3.97;;;1.92;;
51981;SDS011;37998;53.416;6.730;2022-08-30T03:44:26;5.72;;;1.88;;
51981;SDS011;37998;53.416;6.730;2022-08-30T03:46:51;4.53;;;1.80;;
51981;SDS011;37998;53.416;6.730;2022-08-30T03:49:17;2.38;;;1.80;;
51981;SDS011;37998;53.416;6.730;2022-08-30T03:51:44;4.00;;;1.90;;
51981;SDS011;37998;53.416;6.730;2022-08-30T03:54:11;4.63;;;1.67;;
51981;SDS011;37998;53.416;6.730;2022-08-30T03:56:37;5.28;;;1.70;;
51981;SDS011;37998;53.416;6.730;2022-08-30T03:59:03;3.53;;;1.70;;
51981;SDS011;37998;53.416;6.730;2022-08-30T04:01:29;3.15;;;1.67;;
51981;SDS011;37998;53.416;6.730;2022-08-30T04:03:55;3.47;;;1.90;;
51981;SDS011;37998;53.416;6.730;2022-08-30T04:06:21;2.28;;;1.52;;
51981;SDS011;37998;53.416;6.730;2022-08-30T04:08:47;1.88;;;1.75;;
51981;SDS011;37998;53.416;6.730;2022-08-30T04:11:13;3.50;;;1.98;;
51981;SDS011;37998;53.416;6.730;2022-08-30T04:13:40;3.10;;;1.92;;
51981;SDS011;37998;53.416;6.730;2022-08-30T04:16:06;7.43;;;1.80;;
51981;SDS011;37998;53.416;6.730;2022-08-30T04:18:32;4.50;;;1.80;;
51981;SDS011;37998;53.416;6.730;2022-08-30T04:20:58;4.18;;;1.90;;
51981;SDS011;37998;53.416;6.730;2022-08-30T04:23:24;3.00;;;1.92;;
51981;SDS011;37998;53.416;6.730;2022-08-30T04:25:50;3.17;;;1.83;;
51981;SDS011;37998;53.416;6.730;2022-08-30T04:28:15;3.58;;;1.90;;
51981;SDS011;37998;53.416;6.730;2022-08-30T04:30:42;3.05;;;1.88;;
51981;SDS011;37998;53.416;6.730;2022-08-30T04:33:08;3.05;;;2.00;;
51981;SDS011;37998;53.416;6.730;2022-08-30T04:35:35;3.08;;;1.92;;
51981;SDS011;37998;53.416;6.730;2022-08-30T04:38:01;2.67;;;1.70;;
51981;SDS011;37998;53.416;6.730;2022-08-30T04:40:27;5.72;;;1.90;;
51981;SDS011;37998;53.416;6.730;2022-08-30T04:42:53;7.88;;;1.85;;
51981;SDS011;37998;53.416;6.730;2022-08-30T04:45:19;4.72;;;1.77;;
51981;SDS011;37998;53.416;6.730;2022-08-30T04:47:45;3.10;;;1.98;;
51981;SDS011;37998;53.416;6.730;2022-08-30T04:50:12;3.05;;;2.10;;
51981;SDS011;37998;53.416;6.730;2022-08-30T04:52:40;4.13;;;2.33;;
51981;SDS011;37998;53.416;6.730;2022-08-30T04:55:06;4.72;;;2.25;;
51981;SDS011;37998;53.416;6.730;2022-08-30T04:57:34;3.60;;;2.13;;
51981;SDS011;37998;53.416;6.730;2022-08-30T05:00:01;3.42;;;2.00;;
51981;SDS011;37998;53.416;6.730;2022-08-30T05:02:29;2.85;;;2.00;;
51981;SDS011;37998;53.416;6.730;2022-08-30T05:04:55;3.88;;;1.92;;
51981;SDS011;37998;53.416;6.730;2022-08-30T05:07:39;2.97;;;2.00;;
51981;SDS011;37998;53.416;6.730;2022-08-30T05:10:05;4.15;;;1.98;;
51981;SDS011;37998;53.416;6.730;2022-08-30T05:12:31;6.28;;;2.42;;
51981;SDS011;37998;53.416;6.730;2022-08-30T05:14:57;5.15;;;2.28;;
51981;SDS011;37998;53.416;6.730;2022-08-30T05:17:23;4.28;;;2.17;;
51981;SDS011;37998;53.416;6.730;2022-08-30T05:19:49;7.80;;;2.85;;
51981;SDS011;37998;53.416;6.730;2022-08-30T05:22:14;7.57;;;3.08;;
51981;SDS011;37998;53.416;6.730;2022-08-30T05:24:40;5.05;;;2.45;;
51981;SDS011;37998;53.416;6.730;2022-08-30T05:27:06;6.15;;;2.67;;
51981;SDS011;37998;53.416;6.730;2022-08-30T05:29:32;6.03;;;2.47;;
51981;SDS011;37998;53.416;6.730;2022-08-30T05:31:58;9.27;;;3.03;;
51981;SDS011;37998;53.416;6.730;2022-08-30T05:34:23;4.57;;;2.45;;
51981;SDS011;37998;53.416;6.730;2022-08-30T05:36:50;5.82;;;2.08;;
51981;SDS011;37998;53.416;6.730;2022-08-30T05:39:15;4.90;;;2.45;;
51981;SDS011;37998;53.416;6.730;2022-08-30T05:41:41;6.43;;;2.40;;
51981;SDS011;37998;53.416;6.730;2022-08-30T05:44:07;5.25;;;2.92;;
51981;SDS011;37998;53.416;6.730;2022-08-30T05:46:34;4.93;;;2.25;;
51981;SDS011;37998;53.416;6.730;2022-08-30T05:49:00;3.53;;;2.13;;
51981;SDS011;37998;53.416;6.730;2022-08-30T05:51:29;3.47;;;2.00;;
51981;SDS011;37998;53.416;6.730;2022-08-30T05:53:57;3.47;;;1.73;;
51981;SDS011;37998;53.416;6.730;2022-08-30T05:56:24;5.90;;;1.95;;
51981;SDS011;37998;53.416;6.730;2022-08-30T05:59:01;3.25;;;2.00;;
51981;SDS011;37998;53.416;6.730;2022-08-30T06:01:30;6.47;;;2.25;;
51981;SDS011;37998;53.416;6.730;2022-08-30T06:04:05;6.13;;;2.00;;
51981;SDS011;37998;53.416;6.730;2022-08-30T06:06:32;5.50;;;2.10;;
51981;SDS011;37998;53.416;6.730;2022-08-30T06:08:59;5.18;;;2.03;;
51981;SDS011;37998;53.416;6.730;2022-08-30T06:11:26;4.28;;;2.30;;
51981;SDS011;37998;53.416;6.730;2022-08-30T06:13:52;4.03;;;1.80;;
51981;SDS011;37998;53.416;6.730;2022-08-30T06:16:19;3.88;;;1.70;;
51981;SDS011;37998;53.416;6.730;2022-08-30T06:18:46;6.38;;;1.65;;
51981;SDS011;37998;53.416;6.730;2022-08-30T06:21:31;2.40;;;1.40;;
51981;SDS011;37998;53.416;6.730;2022-08-30T06:23:58;1.90;;;1.50;;
51981;SDS011;37998;53.416;6.730;2022-08-30T06:26:25;4.28;;;2.10;;
51981;SDS011;37998;53.416;6.730;2022-08-30T06:28:53;4.82;;;1.92;;
51981;SDS011;37998;53.416;6.730;2022-08-30T06:31:20;7.72;;;1.80;;
51981;SDS011;37998;53.416;6.730;2022-08-30T06:33:46;7.05;;;1.85;;
51981;SDS011;37998;53.416;6.730;2022-08-30T06:36:14;5.38;;;2.33;;
51981;SDS011;37998;53.416;6.730;2022-08-30T06:38:43;5.38;;;1.88;;
51981;SDS011;37998;53.416;6.730;2022-08-30T06:41:11;7.50;;;1.70;;
51981;SDS011;37998;53.416;6.730;2022-08-30T06:43:42;7.18;;;1.83;;
51981;SDS011;37998;53.416;6.730;2022-08-30T06:46:10;2.85;;;1.67;;
51981;SDS011;37998;53.416;6.730;2022-08-30T06:48:37;2.50;;;1.50;;
51981;SDS011;37998;53.416;6.730;2022-08-30T06:51:03;5.50;;;1.55;;
51981;SDS011;37998;53.416;6.730;2022-08-30T06:53:29;3.95;;;1.70;;
51981;SDS011;37998;53.416;6.730;2022-08-30T06:55:56;3.42;;;1.30;;
51981;SDS011;37998;53.416;6.730;2022-08-30T06:58:23;3.08;;;1.38;;
51981;SDS011;37998;53.416;6.730;2022-08-30T07:00:49;3.65;;;1.77;;
51981;SDS011;37998;53.416;6.730;2022-08-30T07:03:14;5.72;;;1.55;;
51981;SDS011;37998;53.416;6.730;2022-08-30T07:05:40;1.75;;;1.25;;
51981;SDS011;37998;53.416;6.730;2022-08-30T07:08:06;1.65;;;1.35;;
51981;SDS011;37998;53.416;6.730;2022-08-30T07:10:31;2.95;;;1.38;;
51981;SDS011;37998;53.416;6.730;2022-08-30T07:12:57;4.28;;;2.00;;
51981;SDS011;37998;53.416;6.730;2022-08-30T07:15:23;2.63;;;1.60;;
51981;SDS011;37998;53.416;6.730;2022-08-30T07:17:48;3.83;;;1.40;;
51981;SDS011;37998;53.416;6.730;2022-08-30T07:20:36;2.15;;;1.38;;
51981;SDS011;37998;53.416;6.730;2022-08-30T07:23:02;2.25;;;1.10;;
51981;SDS011;37998;53.416;6.730;2022-08-30T07:25:27;2.92;;;1.40;;
51981;SDS011;37998;53.416;6.730;2022-08-30T07:27:53;2.17;;;1.27;;
51981;SDS011;37998;53.416;6.730;2022-08-30T07:30:21;8.10;;;1.50;;
51981;SDS011;37998;53.416;6.730;2022-08-30T07:32:47;3.03;;;1.30;;
51981;SDS011;37998;53.416;6.730;2022-08-30T07:35:13;3.75;;;1.33;;
51981;SDS011;37998;53.416;6.730;2022-08-30T07:37:39;2.58;;;1.23;;
51981;SDS011;37998;53.416;6.730;2022-08-30T07:40:05;2.15;;;1.30;;
51981;SDS011;37998;53.416;6.730;2022-08-30T07:42:32;1.83;;;1.30;;
51981;SDS011;37998;53.416;6.730;2022-08-30T07:44:57;2.42;;;1.30;;
51981;SDS011;37998;53.416;6.730;2022-08-30T07:47:23;3.33;;;1.23;;
51981;SDS011;37998;53.416;6.730;2022-08-30T07:49:49;2.90;;;1.30;;
51981;SDS011;37998;53.416;6.730;2022-08-30T07:52:14;3.22;;;1.48;;
51981;SDS011;37998;53.416;6.730;2022-08-30T07:54:40;4.10;;;1.40;;
51981;SDS011;37998;53.416;6.730;2022-08-30T07:57:07;4.68;;;1.50;;
51981;SDS011;37998;53.416;6.730;2022-08-30T07:59:32;2.13;;;1.20;;
51981;SDS011;37998;53.416;6.730;2022-08-30T08:01:58;1.52;;;1.30;;
51981;SDS011;37998;53.416;6.730;2022-08-30T08:04:23;2.15;;;1.35;;
51981;SDS011;37998;53.416;6.730;2022-08-30T08:06:49;2.90;;;1.45;;
51981;SDS011;37998;53.416;6.730;2022-08-30T08:09:15;1.42;;;1.20;;
51981;SDS011;37998;53.416;6.730;2022-08-30T08:11:42;2.33;;;1.50;;
51981;SDS011;37998;53.416;6.730;2022-08-30T08:14:08;3.60;;;1.70;;
51981;SDS011;37998;53.416;6.730;2022-08-30T08:16:34;2.83;;;1.35;;
51981;SDS011;37998;53.416;6.730;2022-08-30T08:19:01;3.38;;;1.50;;
51981;SDS011;37998;53.416;6.730;2022-08-30T08:21:28;5.53;;;1.98;;
51981;SDS011;37998;53.416;6.730;2022-08-30T08:23:54;1.92;;;1.38;;
51981;SDS011;37998;53.416;6.730;2022-08-30T08:26:20;7.10;;;1.38;;
51981;SDS011;37998;53.416;6.730;2022-08-30T08:28:46;3.00;;;1.27;;
51981;SDS011;37998;53.416;6.730;2022-08-30T08:31:22;3.72;;;1.30;;
51981;SDS011;37998;53.416;6.730;2022-08-30T08:33:49;1.58;;;1.35;;
51981;SDS011;37998;53.416;6.730;2022-08-30T08:36:15;2.10;;;1.20;;
51981;SDS011;37998;53.416;6.730;2022-08-30T08:38:42;4.75;;;1.48;;
51981;SDS011;37998;53.416;6.730;2022-08-30T08:43:37;4.40;;;1.20;;
51981;SDS011;37998;53.416;6.730;2022-08-30T08:46:06;3.10;;;1.20;;
51981;SDS011;37998;53.416;6.730;2022-08-30T08:51:03;2.00;;;1.30;;
51981;SDS011;37998;53.416;6.730;2022-08-30T08:54:13;2.28;;;1.15;;
51981;SDS011;37998;53.416;6.730;2022-08-30T08:56:48;4.88;;;1.25;;
51981;SDS011;37998;53.416;6.730;2022-08-30T08:59:14;2.45;;;1.02;;
51981;SDS011;37998;53.416;6.730;2022-08-30T09:01:40;2.00;;;1.45;;
51981;SDS011;37998;53.416;6.730;2022-08-30T09:04:25;1.65;;;1.10;;
51981;SDS011;37998;53.416;6.730;2022-08-30T09:09:27;2.38;;;1.25;;
51981;SDS011;37998;53.416;6.730;2022-08-30T09:11:56;2.35;;;1.42;;
51981;SDS011;37998;53.416;6.730;2022-08-30T09:14:24;3.13;;;1.20;;
51981;SDS011;37998;53.416;6.730;2022-08-30T09:22:13;1.88;;;1.10;;
51981;SDS011;37998;53.416;6.730;2022-08-30T09:27:45;5.32;;;1.17;;
51981;SDS011;37998;53.416;6.730;2022-08-30T09:32:48;2.00;;;1.33;;
51981;SDS011;37998;53.416;6.730;2022-08-30T09:35:19;2.15;;;1.27;;
51981;SDS011;37998;53.416;6.730;2022-08-30T09:37:57;1.70;;;1.13;;
51981;SDS011;37998;53.416;6.730;2022-08-30T09:43:30;2.85;;;1.35;;
51981;SDS011;37998;53.416;6.730;2022-08-30T09:59:07;4.13;;;1.30;;
51981;SDS011;37998;53.416;6.730;2022-08-30T10:01:49;2.97;;;1.10;;
51981;SDS011;37998;53.416;6.730;2022-08-30T10:09:50;5.57;;;1.20;;
51981;SDS011;37998;53.416;6.730;2022-08-30T10:20:35;3.83;;;1.33;;
51981;SDS011;37998;53.416;6.730;2022-08-30T10:23:07;2.35;;;1.35;;
51981;SDS011;37998;53.416;6.730;2022-08-30T10:25:39;2.72;;;1.10;;
51981;SDS011;37998;53.416;6.730;2022-08-30T10:28:13;3.17;;;1.20;;
51981;SDS011;37998;53.416;6.730;2022-08-30T10:30:41;2.00;;;1.20;;
51981;SDS011;37998;53.416;6.730;2022-08-30T10:33:25;5.40;;;1.48;;
51981;SDS011;37998;53.416;6.730;2022-08-30T10:35:57;1.77;;;1.30;;
51981;SDS011;37998;53.416;6.730;2022-08-30T10:38:28;2.47;;;1.10;;
51981;SDS011;37998;53.416;6.730;2022-08-30T10:41:02;2.22;;;1.27;;
51981;SDS011;37998;53.416;6.730;2022-08-30T10:43:56;2.75;;;1.55;;
51981;SDS011;37998;53.416;6.730;2022-08-30T10:57:17;3.10;;;1.20;;
51981;SDS011;37998;53.416;6.730;2022-08-30T10:59:45;2.70;;;1.30;;
51981;SDS011;37998;53.416;6.730;2022-08-30T11:05:11;1.88;;;1.25;;
51981;SDS011;37998;53.416;6.730;2022-08-30T11:08:21;2.60;;;1.10;;
51981;SDS011;37998;53.416;6.730;2022-08-30T11:11:26;3.72;;;1.42;;
51981;SDS011;37998;53.416;6.730;2022-08-30T11:14:22;0.85;;;0.85;;
51981;SDS011;37998;53.416;6.730;2022-08-30T11:16:49;2.17;;;1.10;;
51981;SDS011;37998;53.416;6.730;2022-08-30T11:19:22;2.10;;;1.25;;
51981;SDS011;37998;53.416;6.730;2022-08-30T11:21:51;2.50;;;1.30;;
51981;SDS011;37998;53.416;6.730;2022-08-30T11:24:32;3.42;;;1.13;;
51981;SDS011;37998;53.416;6.730;2022-08-30T11:32:58;1.58;;;1.15;;
51981;SDS011;37998;53.416;6.730;2022-08-30T11:38:18;2.25;;;1.20;;
51981;SDS011;37998;53.416;6.730;2022-08-30T11:40:52;1.80;;;1.20;;
51981;SDS011;37998;53.416;6.730;2022-08-30T11:57:08;3.83;;;1.50;;
51981;SDS011;37998;53.416;6.730;2022-08-30T12:08:48;3.35;;;1.40;;
51981;SDS011;37998;53.416;6.730;2022-08-30T12:11:02;2.03;;;1.20;;
51981;SDS011;37998;53.416;6.730;2022-08-30T12:16:06;4.07;;;1.30;;
51981;SDS011;37998;53.416;6.730;2022-08-30T12:26:31;1.65;;;1.17;;
51981;SDS011;37998;53.416;6.730;2022-08-30T12:29:17;3.63;;;1.30;;
51981;SDS011;37998;53.416;6.730;2022-08-30T12:40:17;2.75;;;1.30;;
51981;SDS011;37998;53.416;6.730;2022-08-30T12:43:23;4.47;;;1.30;;
51981;SDS011;37998;53.416;6.730;2022-08-30T12:45:46;1.73;;;1.20;;
51981;SDS011;37998;53.416;6.730;2022-08-30T12:48:16;2.33;;;1.08;;
51981;SDS011;37998;53.416;6.730;2022-08-30T12:50:50;2.60;;;1.13;;
51981;SDS011;37998;53.416;6.730;2022-08-30T12:53:22;2.00;;;1.20;;
51981;SDS011;37998;53.416;6.730;2022-08-30T13:01:11;1.45;;;1.20;;
51981;SDS011;37998;53.416;6.730;2022-08-30T13:03:37;1.73;;;1.08;;
51981;SDS011;37998;53.416;6.730;2022-08-30T13:06:04;5.30;;;1.13;;
51981;SDS011;37998;53.416;6.730;2022-08-30T13:11:09;2.72;;;1.30;;
51981;SDS011;37998;53.416;6.730;2022-08-30T13:13:48;2.22;;;1.20;;
51981;SDS011;37998;53.416;6.730;2022-08-30T13:16:35;3.55;;;1.40;;
51981;SDS011;37998;53.416;6.730;2022-08-30T13:22:00;2.35;;;1.00;;
51981;SDS011;37998;53.416;6.730;2022-08-30T13:24:27;2.38;;;1.35;;
51981;SDS011;37998;53.416;6.730;2022-08-30T13:27:03;2.83;;;1.48;;
51981;SDS011;37998;53.416;6.730;2022-08-30T13:29:35;3.42;;;1.50;;
51981;SDS011;37998;53.416;6.730;2022-08-30T13:32:01;3.10;;;1.40;;
51981;SDS011;37998;53.416;6.730;2022-08-30T13:34:27;3.20;;;1.52;;
51981;SDS011;37998;53.416;6.730;2022-08-30T13:36:57;2.67;;;1.50;;
51981;SDS011;37998;53.416;6.730;2022-08-30T13:39:24;2.63;;;1.17;;
51981;SDS011;37998;53.416;6.730;2022-08-30T13:41:50;1.85;;;1.05;;
51981;SDS011;37998;53.416;6.730;2022-08-30T13:44:16;3.15;;;1.40;;
51981;SDS011;37998;53.416;6.730;2022-08-30T13:46:46;4.43;;;1.10;;
51981;SDS011;37998;53.416;6.730;2022-08-30T13:49:16;2.20;;;1.35;;
51981;SDS011;37998;53.416;6.730;2022-08-30T13:51:44;1.55;;;1.45;;
51981;SDS011;37998;53.416;6.730;2022-08-30T13:54:12;3.53;;;1.40;;
51981;SDS011;37998;53.416;6.730;2022-08-30T13:56:37;3.30;;;1.33;;
51981;SDS011;37998;53.416;6.730;2022-08-30T13:59:03;4.20;;;1.45;;
51981;SDS011;37998;53.416;6.730;2022-08-30T14:01:29;4.95;;;1.40;;
51981;SDS011;37998;53.416;6.730;2022-08-30T14:03:55;3.08;;;1.27;;
51981;SDS011;37998;53.416;6.730;2022-08-30T14:06:20;2.15;;;1.17;;
51981;SDS011;37998;53.416;6.730;2022-08-30T14:08:47;4.13;;;1.75;;
51981;SDS011;37998;53.416;6.730;2022-08-30T14:11:13;1.80;;;1.33;;
51981;SDS011;37998;53.416;6.730;2022-08-30T14:13:41;2.50;;;1.30;;
51981;SDS011;37998;53.416;6.730;2022-08-30T14:16:08;2.55;;;1.50;;
51981;SDS011;37998;53.416;6.730;2022-08-30T14:18:34;3.55;;;1.40;;
51981;SDS011;37998;53.416;6.730;2022-08-30T14:21:00;3.92;;;1.48;;
51981;SDS011;37998;53.416;6.730;2022-08-30T14:23:25;3.90;;;0.90;;
51981;SDS011;37998;53.416;6.730;2022-08-30T14:25:52;1.90;;;1.30;;
51981;SDS011;37998;53.416;6.730;2022-08-30T14:28:18;4.30;;;1.33;;
51981;SDS011;37998;53.416;6.730;2022-08-30T14:30:44;2.10;;;1.20;;
51981;SDS011;37998;53.416;6.730;2022-08-30T14:33:11;1.35;;;1.10;;
51981;SDS011;37998;53.416;6.730;2022-08-30T14:35:36;6.10;;;2.13;;
51981;SDS011;37998;53.416;6.730;2022-08-30T14:38:02;2.20;;;1.23;;
51981;SDS011;37998;53.416;6.730;2022-08-30T14:40:28;3.50;;;1.38;;
51981;SDS011;37998;53.416;6.730;2022-08-30T14:42:54;3.03;;;1.30;;
51981;SDS011;37998;53.416;6.730;2022-08-30T14:45:20;1.45;;;1.13;;
51981;SDS011;37998;53.416;6.730;2022-08-30T14:47:46;2.53;;;1.23;;
51981;SDS011;37998;53.416;6.730;2022-08-30T14:50:11;2.33;;;1.05;;
51981;SDS011;37998;53.416;6.730;2022-08-30T14:52:37;2.85;;;1.30;;
51981;SDS011;37998;53.416;6.730;2022-08-30T14:55:05;2.30;;;1.35;;
51981;SDS011;37998;53.416;6.730;2022-08-30T14:57:32;2.28;;;1.20;;
51981;SDS011;37998;53.416;6.730;2022-08-30T14:59:57;2.63;;;1.15;;
51981;SDS011;37998;53.416;6.730;2022-08-30T15:02:23;3.80;;;1.40;;
51981;SDS011;37998;53.416;6.730;2022-08-30T15:04:49;3.42;;;1.17;;
51981;SDS011;37998;53.416;6.730;2022-08-30T15:07:14;3.08;;;1.23;;
51981;SDS011;37998;53.416;6.730;2022-08-30T15:09:40;4.90;;;1.30;;
51981;SDS011;37998;53.416;6.730;2022-08-30T15:12:07;2.20;;;1.30;;
51981;SDS011;37998;53.416;6.730;2022-08-30T15:14:33;4.30;;;1.17;;
51981;SDS011;37998;53.416;6.730;2022-08-30T15:16:59;2.47;;;1.23;;
51981;SDS011;37998;53.416;6.730;2022-08-30T15:19:29;2.53;;;1.23;;
51981;SDS011;37998;53.416;6.730;2022-08-30T15:21:57;2.88;;;1.40;;
51981;SDS011;37998;53.416;6.730;2022-08-30T15:24:25;4.75;;;1.52;;
51981;SDS011;37998;53.416;6.730;2022-08-30T15:26:51;3.40;;;1.65;;
51981;SDS011;37998;53.416;6.730;2022-08-30T15:29:17;3.35;;;1.60;;
51981;SDS011;37998;53.416;6.730;2022-08-30T15:31:44;2.03;;;1.25;;
51981;SDS011;37998;53.416;6.730;2022-08-30T15:34:12;4.35;;;1.70;;
51981;SDS011;37998;53.416;6.730;2022-08-30T15:36:40;2.45;;;1.60;;
51981;SDS011;37998;53.416;6.730;2022-08-30T15:39:07;2.95;;;1.50;;
51981;SDS011;37998;53.416;6.730;2022-08-30T15:41:33;2.50;;;1.30;;
51981;SDS011;37998;53.416;6.730;2022-08-30T15:44:00;1.90;;;1.48;;
51981;SDS011;37998;53.416;6.730;2022-08-30T15:46:36;3.45;;;1.60;;
51981;SDS011;37998;53.416;6.730;2022-08-30T15:49:04;4.07;;;1.55;;
51981;SDS011;37998;53.416;6.730;2022-08-30T15:51:33;4.32;;;1.48;;
51981;SDS011;37998;53.416;6.730;2022-08-30T15:54:00;4.30;;;2.08;;
51981;SDS011;37998;53.416;6.730;2022-08-30T15:56:27;2.72;;;1.58;;
51981;SDS011;37998;53.416;6.730;2022-08-30T15:58:53;2.05;;;1.67;;
51981;SDS011;37998;53.416;6.730;2022-08-30T16:01:19;4.00;;;1.40;;
51981;SDS011;37998;53.416;6.730;2022-08-30T16:03:45;3.50;;;1.40;;
51981;SDS011;37998;53.416;6.730;2022-08-30T16:06:15;2.95;;;1.40;;
51981;SDS011;37998;53.416;6.730;2022-08-30T16:08:52;2.33;;;1.50;;
51981;SDS011;37998;53.416;6.730;2022-08-30T16:11:18;3.63;;;1.30;;
51981;SDS011;37998;53.416;6.730;2022-08-30T16:13:46;4.35;;;1.75;;
51981;SDS011;37998;53.416;6.730;2022-08-30T16:16:13;5.57;;;1.63;;
51981;SDS011;37998;53.416;6.730;2022-08-30T16:18:39;2.60;;;1.60;;
51981;SDS011;37998;53.416;6.730;2022-08-30T16:21:06;2.30;;;1.50;;
51981;SDS011;37998;53.416;6.730;2022-08-30T16:23:34;3.08;;;1.48;;
51981;SDS011;37998;53.416;6.730;2022-08-30T16:26:01;1.40;;;1.17;;
51981;SDS011;37998;53.416;6.730;2022-08-30T16:28:28;5.55;;;1.30;;
51981;SDS011;37998;53.416;6.730;2022-08-30T16:30:54;2.50;;;1.02;;
51981;SDS011;37998;53.416;6.730;2022-08-30T16:33:20;2.17;;;1.05;;
51981;SDS011;37998;53.416;6.730;2022-08-30T16:35:48;2.67;;;1.40;;
51981;SDS011;37998;53.416;6.730;2022-08-30T16:38:16;3.47;;;1.20;;
51981;SDS011;37998;53.416;6.730;2022-08-30T16:40:41;3.55;;;1.48;;
51981;SDS011;37998;53.416;6.730;2022-08-30T16:43:07;1.30;;;1.17;;
51981;SDS011;37998;53.416;6.730;2022-08-30T16:45:33;1.45;;;1.10;;
51981;SDS011;37998;53.416;6.730;2022-08-30T16:48:00;4.20;;;1.88;;
51981;SDS011;37998;53.416;6.730;2022-08-30T16:50:26;1.77;;;1.40;;
51981;SDS011;37998;53.416;6.730;2022-08-30T16:52:52;1.92;;;1.20;;
51981;SDS011;37998;53.416;6.730;2022-08-30T16:55:17;2.45;;;1.30;;
51981;SDS011;37998;53.416;6.730;2022-08-30T16:57:43;4.72;;;1.45;;
51981;SDS011;37998;53.416;6.730;2022-08-30T17:00:09;2.35;;;1.30;;